createdAt,value
2022-11-08T00:09:00.820Z,1.77
2022-11-08T00:29:07.309Z,1.67
2022-11-08T00:39:12.077Z,2.15
2022-11-08T00:49:14.858Z,1.73
2022-11-08T00:59:20.316Z,1.80
2022-11-08T01:09:22.946Z,2.13
2022-11-08T01:19:27.092Z,2.25
2022-11-08T01:29:29.721Z,1.92
2022-11-08T01:39:33.987Z,2.40
2022-11-08T01:49:41.181Z,1.50
2022-11-08T01:59:48.837Z,1.67
2022-11-08T02:09:51.734Z,1.83
2022-11-08T02:19:55.715Z,1.60
2022-11-08T02:29:59.670Z,1.70
2022-11-08T02:40:02.393Z,2.00
2022-11-08T02:50:07.721Z,1.50
2022-11-08T03:00:12.246Z,2.08
2022-11-08T03:10:17.227Z,1.73
2022-11-08T03:20:20.287Z,1.50
2022-11-08T03:30:24.340Z,1.67
2022-11-08T03:40:27.451Z,1.80
2022-11-08T03:50:31.547Z,1.63
2022-11-08T04:00:34.332Z,2.08
2022-11-08T04:10:38.319Z,2.10
2022-11-08T04:20:59.269Z,2.17
2022-11-08T04:31:05.406Z,2.78
2022-11-08T04:41:10.589Z,2.53
2022-11-08T04:51:16.818Z,2.90
2022-11-08T05:01:22.171Z,2.50
2022-11-08T05:11:29.094Z,2.33
2022-11-08T05:21:45.681Z,2.67
2022-11-08T05:31:49.647Z,2.38
2022-11-08T05:41:52.333Z,2.45
2022-11-08T05:51:56.287Z,2.65
2022-11-08T06:01:58.943Z,2.30
2022-11-08T06:12:02.943Z,2.35
2022-11-08T06:22:05.645Z,2.20
2022-11-08T06:32:10.218Z,2.50
2022-11-08T06:42:13.104Z,2.15
2022-11-08T06:52:17.293Z,1.90
2022-11-08T07:02:20.183Z,2.10
2022-11-08T07:12:24.285Z,2.20
2022-11-08T07:22:26.949Z,1.83
2022-11-08T07:32:30.910Z,1.92
2022-11-08T07:43:04.794Z,1.85
2022-11-08T07:53:01.046Z,2.03
2022-11-08T08:03:05.032Z,1.90
2022-11-08T08:13:09.605Z,2.05
2022-11-08T08:23:12.359Z,1.63
2022-11-08T08:33:33.475Z,1.40
2022-11-08T08:43:36.139Z,1.25
2022-11-08T08:53:40.165Z,1.40
2022-11-08T09:03:42.995Z,1.40
2022-11-08T09:13:46.975Z,1.08
2022-11-08T09:23:49.628Z,1.40
2022-11-08T09:33:53.893Z,1.30
2022-11-08T09:44:08.522Z,1.70
2022-11-08T09:54:19.776Z,1.20
2022-11-08T10:04:24.855Z,1.25
2022-11-08T10:14:50.657Z,1.20
2022-11-08T10:24:59.202Z,1.20
2022-11-08T10:35:09.978Z,0.88
2022-11-08T10:45:12.761Z,1.20
2022-11-08T10:55:28.693Z,1.13
2022-11-08T11:05:35.198Z,1.10
2022-11-08T11:15:45.086Z,1.30
2022-11-08T11:25:52.077Z,1.30
2022-11-08T11:35:58.786Z,2.33
2022-11-08T11:46:07.157Z,1.40
2022-11-08T11:56:42.008Z,1.60
2022-11-08T12:06:51.243Z,1.05
2022-11-08T12:17:07.810Z,0.93
2022-11-08T12:27:22.266Z,1.40
2022-11-08T12:37:39.248Z,1.00
2022-11-08T12:47:46.549Z,1.15
2022-11-08T12:57:53.463Z,1.10
2022-11-08T13:08:02.478Z,0.98
2022-11-08T13:18:26.052Z,1.40
2022-11-08T13:28:41.147Z,1.10
2022-11-08T13:38:53.960Z,1.15
2022-11-08T13:49:15.021Z,1.23
2022-11-08T14:00:00.092Z,1.30
2022-11-08T14:10:12.866Z,1.00
2022-11-08T14:20:20.118Z,1.17
2022-11-08T14:30:25.309Z,1.27
2022-11-08T14:40:30.053Z,1.17
2022-11-08T14:50:35.533Z,1.40
2022-11-08T15:00:38.345Z,1.20
2022-11-08T15:10:55.329Z,1.73
2022-11-08T15:21:01.671Z,1.40
2022-11-08T15:31:06.058Z,1.92
2022-11-08T15:41:30.594Z,1.70
2022-11-08T15:51:34.619Z,1.27
2022-11-08T16:01:42.175Z,1.70
2022-11-08T16:11:47.115Z,2.05
2022-11-08T16:21:49.991Z,1.80
2022-11-08T16:31:54.058Z,1.52
2022-11-08T16:41:56.774Z,1.52
2022-11-08T16:52:00.749Z,2.13
2022-11-08T17:02:03.425Z,1.35
2022-11-08T17:12:07.838Z,2.30
2022-11-08T17:22:10.524Z,1.63
2022-11-08T17:32:14.506Z,1.95
2022-11-08T17:42:17.170Z,1.85
2022-11-08T17:52:21.890Z,2.20
2022-11-08T18:02:25.351Z,1.70
2022-11-08T18:12:29.389Z,1.88
2022-11-08T18:22:32.731Z,2.13
2022-11-08T18:32:37.401Z,2.05
2022-11-08T18:42:40.282Z,2.17
2022-11-08T18:52:45.703Z,3.90
2022-11-08T19:02:48.670Z,2.50
2022-11-08T19:12:52.638Z,2.42
2022-11-08T19:22:55.855Z,1.90
2022-11-08T19:33:00.815Z,2.05
2022-11-08T19:43:03.539Z,2.20
2022-11-08T19:53:07.776Z,2.17
2022-11-08T20:03:10.524Z,1.95
2022-11-08T20:13:14.671Z,1.90
2022-11-08T20:23:18.082Z,1.50
2022-11-08T20:33:22.051Z,1.90
2022-11-08T20:43:24.714Z,1.77
2022-11-08T20:53:31.869Z,2.00
2022-11-08T21:03:35.508Z,1.88
2022-11-08T21:13:41.384Z,1.58
2022-11-08T21:23:45.864Z,2.10
2022-11-08T21:33:50.009Z,2.50
2022-11-08T21:43:52.638Z,3.30
2022-11-08T21:53:58.328Z,2.20
2022-11-08T22:04:01.270Z,1.90
2022-11-08T22:14:05.381Z,1.73
2022-11-08T22:24:09.826Z,1.80
2022-11-08T22:34:14.081Z,1.67
2022-11-08T22:44:17.305Z,1.80
2022-11-08T22:54:21.374Z,1.45
2022-11-08T23:04:24.086Z,2.10
2022-11-08T23:14:45.647Z,1.67
2022-11-08T23:24:48.378Z,2.42
2022-11-08T23:34:52.426Z,1.20
2022-11-08T23:44:55.127Z,1.75
2022-11-08T23:54:59.274Z,3.30
